createdAt,value
2018-07-05T00:01:48.722Z,17.10
2018-07-05T00:04:28.570Z,16.17
2018-07-05T00:07:08.246Z,15.50
2018-07-05T00:09:48.091Z,15.97
2018-07-05T00:12:28.018Z,16.43
2018-07-05T00:15:07.867Z,17.13
2018-07-05T00:17:47.662Z,16.23
2018-07-05T00:20:27.378Z,15.83
2018-07-05T00:23:07.393Z,14.33
2018-07-05T00:25:47.198Z,13.47
2018-07-05T00:28:27.034Z,13.13
2018-07-05T00:31:06.914Z,12.00
2018-07-05T00:33:46.698Z,11.53
2018-07-05T00:36:26.547Z,11.93
2018-07-05T00:39:06.537Z,13.33
2018-07-05T00:41:46.830Z,12.70
2018-07-05T00:44:26.613Z,12.80
2018-07-05T00:47:06.320Z,10.97
2018-07-05T00:49:46.168Z,11.93
2018-07-05T00:52:25.907Z,13.17
2018-07-05T00:55:05.591Z,12.17
2018-07-05T00:57:45.359Z,12.63
2018-07-05T01:00:25.266Z,11.70
2018-07-05T01:03:05.065Z,11.13
2018-07-05T01:05:44.722Z,11.80
2018-07-05T01:08:24.419Z,11.10
2018-07-05T01:11:04.577Z,11.43
2018-07-05T01:13:44.375Z,11.47
2018-07-05T01:16:24.062Z,11.77
2018-07-05T01:19:03.835Z,10.40
2018-07-05T01:21:43.704Z,12.20
2018-07-05T01:24:23.599Z,10.30
2018-07-05T01:27:03.355Z,9.17
2018-07-05T01:29:43.178Z,9.47
2018-07-05T01:32:23.050Z,8.97
2018-07-05T01:35:02.774Z,8.17
2018-07-05T01:37:42.686Z,8.63
2018-07-05T01:40:22.494Z,8.70
2018-07-05T01:43:02.432Z,8.87
2018-07-05T01:45:42.146Z,8.57
2018-07-05T01:48:21.806Z,8.33
2018-07-05T01:51:01.452Z,8.10
2018-07-05T01:53:41.441Z,8.43
2018-07-05T01:56:21.154Z,7.40
2018-07-05T01:59:00.989Z,8.37
2018-07-05T02:01:40.725Z,8.50
2018-07-05T02:04:20.754Z,7.93
2018-07-05T02:07:00.534Z,8.43
2018-07-05T02:09:40.466Z,7.73
2018-07-05T02:12:20.349Z,7.43
2018-07-05T02:15:00.115Z,8.90
2018-07-05T02:17:39.813Z,9.50
2018-07-05T02:20:19.478Z,9.33
2018-07-05T02:22:59.244Z,8.70
2018-07-05T02:25:39.169Z,9.37
2018-07-05T02:28:19.104Z,9.00
2018-07-05T02:30:58.978Z,9.00
2018-07-05T02:33:38.883Z,8.87
2018-07-05T02:36:18.606Z,8.60
2018-07-05T02:39:03.766Z,9.63
2018-07-05T02:41:43.664Z,9.33
2018-07-05T02:44:23.493Z,9.17
2018-07-05T02:47:03.350Z,9.17
2018-07-05T02:49:43.133Z,8.67
2018-07-05T02:52:22.960Z,8.70
2018-07-05T02:55:02.719Z,10.00
2018-07-05T02:57:42.555Z,9.57
2018-07-05T03:00:22.190Z,10.90
2018-07-05T03:03:01.904Z,13.47
2018-07-05T03:05:41.746Z,13.33
2018-07-05T03:08:21.546Z,13.97
2018-07-05T03:11:01.379Z,13.73
2018-07-05T03:13:41.130Z,14.63
2018-07-05T03:16:20.895Z,15.00
2018-07-05T03:19:00.824Z,15.17
2018-07-05T03:21:40.717Z,15.40
2018-07-05T03:24:20.459Z,17.20
2018-07-05T03:27:00.390Z,16.20
2018-07-05T03:29:40.434Z,17.77
2018-07-05T03:32:20.105Z,16.47
2018-07-05T03:35:00.059Z,15.33
2018-07-05T03:37:39.857Z,15.60
2018-07-05T03:40:19.623Z,15.73
2018-07-05T03:42:59.250Z,15.17
2018-07-05T03:45:39.013Z,15.50
2018-07-05T03:48:18.923Z,16.10
2018-07-05T03:50:58.913Z,16.13
2018-07-05T03:53:39.054Z,14.83
2018-07-05T03:56:18.905Z,15.53
2018-07-05T03:58:58.788Z,15.17
2018-07-05T04:01:38.480Z,15.97
2018-07-05T04:04:18.463Z,15.67
2018-07-05T04:06:58.322Z,15.70
2018-07-05T04:09:38.370Z,14.47
2018-07-05T04:12:18.358Z,14.83
2018-07-05T04:14:58.151Z,14.90
2018-07-05T04:17:38.033Z,15.17
2018-07-05T04:20:18.010Z,14.50
2018-07-05T04:22:57.721Z,15.60
2018-07-05T04:25:37.542Z,15.87
2018-07-05T04:28:17.388Z,15.83
2018-07-05T04:30:57.303Z,15.03
2018-07-05T04:33:37.020Z,15.50
2018-07-05T04:36:16.757Z,15.43
2018-07-05T04:38:56.719Z,15.40
2018-07-05T04:41:36.447Z,16.23
2018-07-05T04:44:16.233Z,15.97
2018-07-05T04:46:55.960Z,16.87
2018-07-05T04:49:35.887Z,16.63
2018-07-05T04:52:15.661Z,15.83
2018-07-05T04:54:55.526Z,15.37
2018-07-05T04:57:35.365Z,11.27
2018-07-05T05:00:15.338Z,10.33
2018-07-05T05:02:55.241Z,10.53
2018-07-05T05:05:35.037Z,10.93
2018-07-05T05:08:15.077Z,11.27
2018-07-05T05:10:54.995Z,10.80
2018-07-05T05:13:34.957Z,9.40
2018-07-05T05:16:14.834Z,9.23
2018-07-05T05:18:54.700Z,9.70
2018-07-05T05:21:34.862Z,9.03
2018-07-05T05:24:14.741Z,9.40
2018-07-05T05:26:54.687Z,8.57
2018-07-05T05:29:34.445Z,8.97
2018-07-05T05:32:14.181Z,9.47
2018-07-05T05:34:53.929Z,9.23
2018-07-05T05:37:34.036Z,9.47
2018-07-05T05:40:13.870Z,9.47
2018-07-05T05:42:53.872Z,10.07
2018-07-05T05:45:33.634Z,9.80
2018-07-05T05:48:13.591Z,9.03
2018-07-05T05:50:53.564Z,9.93
2018-07-05T05:53:33.283Z,10.30
2018-07-05T05:56:13.158Z,11.27
2018-07-05T05:58:52.996Z,10.30
2018-07-05T06:01:32.693Z,12.63
2018-07-05T06:04:12.502Z,13.10
2018-07-05T06:06:52.394Z,12.97
2018-07-05T06:09:32.381Z,13.63
2018-07-05T06:12:12.162Z,12.53
2018-07-05T06:14:52.398Z,13.77
2018-07-05T06:17:32.300Z,12.80
2018-07-05T06:20:12.315Z,11.83
2018-07-05T06:22:52.160Z,10.97
2018-07-05T06:25:32.058Z,11.40
2018-07-05T06:28:12.062Z,10.70
2018-07-05T06:30:51.825Z,10.23
2018-07-05T06:33:31.602Z,10.07
2018-07-05T06:36:11.302Z,10.47
2018-07-05T06:38:51.246Z,10.23
2018-07-05T06:41:31.061Z,11.03
2018-07-05T06:44:11.092Z,10.80
2018-07-05T06:46:51.845Z,11.40
2018-07-05T06:49:31.748Z,11.57
2018-07-05T06:52:11.539Z,9.53
2018-07-05T06:54:51.373Z,8.50
2018-07-05T06:57:31.154Z,7.80
2018-07-05T07:00:12.005Z,8.40
2018-07-05T07:02:51.827Z,9.27
2018-07-05T07:05:31.665Z,7.97
2018-07-05T07:08:11.394Z,7.73
2018-07-05T07:10:51.250Z,7.43
2018-07-05T07:13:31.095Z,8.37
2018-07-05T07:16:10.993Z,7.60
2018-07-05T07:18:50.935Z,7.13
2018-07-05T07:21:30.726Z,7.13
2018-07-05T07:24:10.844Z,7.00
2018-07-05T07:26:50.819Z,6.60
2018-07-05T07:29:30.719Z,6.97
2018-07-05T07:32:10.716Z,7.37
2018-07-05T07:34:50.665Z,7.77
2018-07-05T07:37:30.804Z,8.07
2018-07-05T07:40:10.913Z,7.53
2018-07-05T07:42:38.411Z,7.60
2018-07-05T07:45:05.891Z,7.70
2018-07-05T07:47:33.457Z,7.97
2018-07-05T07:50:00.925Z,8.97
2018-07-05T07:52:28.787Z,9.63
2018-07-05T07:54:56.337Z,9.67
2018-07-05T07:57:23.804Z,10.80
2018-07-05T07:59:51.353Z,11.13
2018-07-05T08:02:18.915Z,11.13
2018-07-05T08:04:46.472Z,10.67
2018-07-05T08:07:14.430Z,11.37
2018-07-05T08:09:41.928Z,11.87
2018-07-05T08:12:09.458Z,11.57
2018-07-05T08:14:36.934Z,12.83
2018-07-05T08:17:04.484Z,13.10
2018-07-05T08:19:31.971Z,13.37
2018-07-05T08:21:59.612Z,12.90
2018-07-05T08:24:27.117Z,11.17
2018-07-05T08:26:54.620Z,11.93
2018-07-05T08:29:22.119Z,12.53
2018-07-05T08:31:49.641Z,12.17
2018-07-05T08:34:17.298Z,13.03
2018-07-05T08:36:44.852Z,11.63
2018-07-05T08:39:12.323Z,11.57
2018-07-05T08:41:39.820Z,11.93
2018-07-05T08:44:07.337Z,12.30
2018-07-05T08:46:34.894Z,12.70
2018-07-05T08:49:02.373Z,11.57
2018-07-05T08:51:29.982Z,11.20
2018-07-05T08:53:57.606Z,11.60
2018-07-05T08:56:25.136Z,12.40
2018-07-05T08:58:52.608Z,12.00
2018-07-05T09:01:20.136Z,13.27
2018-07-05T09:03:47.950Z,11.77
2018-07-05T09:06:15.581Z,12.47
2018-07-05T09:08:43.114Z,11.20
2018-07-05T09:11:10.607Z,11.37
2018-07-05T09:13:38.423Z,13.00
2018-07-05T09:16:05.899Z,10.93
2018-07-05T09:18:33.435Z,12.00
2018-07-05T09:21:00.958Z,13.30
2018-07-05T09:23:28.513Z,13.03
2018-07-05T09:25:56.147Z,13.73
2018-07-05T09:28:23.619Z,13.10
2018-07-05T09:30:51.152Z,13.17
2018-07-05T09:33:18.673Z,11.80
2018-07-05T09:35:46.165Z,12.07
2018-07-05T09:38:13.648Z,13.03
2018-07-05T09:40:41.146Z,12.30
2018-07-05T09:43:08.737Z,12.87
2018-07-05T09:45:36.224Z,12.80
2018-07-05T09:48:03.705Z,12.20
2018-07-05T09:50:31.274Z,12.57
2018-07-05T09:52:58.776Z,13.00
2018-07-05T09:55:26.296Z,11.73
2018-07-05T09:57:53.806Z,13.37
2018-07-05T10:00:25.419Z,12.07
2018-07-05T10:02:52.968Z,11.77
2018-07-05T10:05:20.446Z,12.30
2018-07-05T10:07:48.022Z,11.50
2018-07-05T10:10:15.825Z,12.07
2018-07-05T10:12:43.343Z,12.00
2018-07-05T10:15:10.867Z,12.13
2018-07-05T10:17:38.374Z,12.40
2018-07-05T10:20:05.864Z,11.13
2018-07-05T10:22:33.373Z,11.47
2018-07-05T10:25:00.905Z,12.20
2018-07-05T10:27:28.464Z,11.33
2018-07-05T10:30:08.338Z,10.90
2018-07-05T10:32:48.138Z,10.63
2018-07-05T10:35:15.810Z,10.60
2018-07-05T10:37:43.354Z,10.30
2018-07-05T10:40:23.386Z,10.70
2018-07-05T10:43:03.290Z,10.77
2018-07-05T10:45:43.242Z,10.90
2018-07-05T10:48:23.083Z,11.00
2018-07-05T10:51:02.906Z,11.00
2018-07-05T10:53:42.868Z,9.20
2018-07-05T10:56:22.747Z,11.17
2018-07-05T10:59:02.582Z,9.93
2018-07-05T11:01:42.479Z,10.20
2018-07-05T11:04:22.280Z,11.40
2018-07-05T11:07:02.065Z,11.20
2018-07-05T11:09:42.035Z,10.23
2018-07-05T11:12:21.908Z,9.63
2018-07-05T11:15:01.754Z,9.70
2018-07-05T11:17:41.702Z,9.83
2018-07-05T11:20:21.621Z,9.70
2018-07-05T11:23:01.501Z,9.83
2018-07-05T11:25:41.220Z,10.80
2018-07-05T11:28:21.021Z,10.07
2018-07-05T11:31:00.827Z,9.87
2018-07-05T11:33:40.780Z,10.73
2018-07-05T11:36:20.742Z,11.17
2018-07-05T11:39:00.720Z,10.43
2018-07-05T11:41:40.435Z,10.87
2018-07-05T11:44:20.266Z,10.30
2018-07-05T11:47:00.223Z,11.00
2018-07-05T11:49:40.081Z,10.30
2018-07-05T11:52:20.238Z,10.57
2018-07-05T11:55:00.067Z,10.33
2018-07-05T11:57:39.942Z,9.77
2018-07-05T12:00:19.716Z,10.60
2018-07-05T12:02:59.601Z,9.63
2018-07-05T12:05:39.575Z,9.77
2018-07-05T12:08:19.536Z,8.47
2018-07-05T12:10:59.385Z,9.93
2018-07-05T12:13:39.249Z,8.83
2018-07-05T12:16:19.098Z,9.50
2018-07-05T12:18:59.019Z,9.47
2018-07-05T12:21:38.949Z,9.57
2018-07-05T12:24:18.773Z,9.10
2018-07-05T12:26:58.799Z,8.90
2018-07-05T12:29:38.600Z,9.87
2018-07-05T12:32:18.574Z,10.50
2018-07-05T12:34:58.453Z,9.90
2018-07-05T12:37:38.217Z,9.40
2018-07-05T12:40:17.967Z,9.13
2018-07-05T12:42:57.836Z,8.77
2018-07-05T12:45:37.644Z,9.13
2018-07-05T12:48:17.460Z,9.20
2018-07-05T12:50:57.316Z,8.13
2018-07-05T12:53:37.317Z,8.67
2018-07-05T12:56:17.164Z,9.83
2018-07-05T12:58:56.929Z,10.27
2018-07-05T13:01:36.636Z,9.77
2018-07-05T13:04:16.459Z,9.30
2018-07-05T13:06:56.395Z,8.30
2018-07-05T13:09:36.177Z,9.43
2018-07-05T13:12:15.815Z,10.03
2018-07-05T13:14:56.551Z,8.60
2018-07-05T13:17:36.616Z,8.83
2018-07-05T13:20:16.485Z,9.07
2018-07-05T13:22:56.359Z,9.50
2018-07-05T13:25:36.234Z,10.10
2018-07-05T13:28:16.206Z,9.27
2018-07-05T13:30:56.380Z,10.53
2018-07-05T13:33:36.283Z,8.70
2018-07-05T13:36:16.161Z,10.20
2018-07-05T13:38:56.043Z,9.33
2018-07-05T13:41:35.954Z,9.40
2018-07-05T13:44:16.185Z,10.10
2018-07-05T13:46:56.113Z,9.43
2018-07-05T13:49:35.941Z,9.00
2018-07-05T13:52:15.611Z,9.60
2018-07-05T13:54:55.374Z,8.90
2018-07-05T13:57:35.352Z,9.27
2018-07-05T14:00:15.264Z,8.73
2018-07-05T14:02:55.042Z,9.17
2018-07-05T14:05:35.047Z,10.03
2018-07-05T14:08:14.874Z,8.83
2018-07-05T14:10:54.566Z,8.90
2018-07-05T14:13:34.454Z,9.07
2018-07-05T14:16:14.562Z,9.23
2018-07-05T14:18:54.326Z,9.60
2018-07-05T14:21:34.127Z,10.03
2018-07-05T14:24:13.923Z,8.83
2018-07-05T14:26:54.074Z,9.93
2018-07-05T14:29:34.142Z,10.57
2018-07-05T14:32:13.907Z,10.17
2018-07-05T14:34:53.958Z,10.60
2018-07-05T14:37:33.793Z,9.80
2018-07-05T14:40:13.818Z,10.03
2018-07-05T14:42:53.712Z,9.60
2018-07-05T14:45:33.565Z,10.43
2018-07-05T14:48:13.512Z,10.03
2018-07-05T14:50:53.430Z,9.83
2018-07-05T14:53:33.429Z,9.90
2018-07-05T14:56:13.261Z,9.07
2018-07-05T14:58:53.168Z,10.40
2018-07-05T15:01:33.425Z,9.60
2018-07-05T15:04:13.528Z,9.90
2018-07-05T15:06:53.610Z,9.60
2018-07-05T15:09:33.365Z,9.37
2018-07-05T15:12:13.161Z,9.63
2018-07-05T15:14:53.066Z,9.87
2018-07-05T15:17:32.940Z,10.53
2018-07-05T15:20:12.963Z,9.90
2018-07-05T15:22:52.849Z,10.07
2018-07-05T15:25:32.752Z,10.13
2018-07-05T15:28:12.774Z,10.00
2018-07-05T15:30:52.621Z,9.80
2018-07-05T15:33:32.473Z,9.57
2018-07-05T15:36:13.322Z,9.23
2018-07-05T15:38:53.261Z,7.87
2018-07-05T15:41:33.253Z,8.80
2018-07-05T15:44:12.885Z,8.77
2018-07-05T15:46:52.788Z,9.27
2018-07-05T15:49:32.706Z,9.43
2018-07-05T15:52:12.623Z,9.10
2018-07-05T15:54:52.643Z,8.27
2018-07-05T15:57:32.363Z,8.80
2018-07-05T16:00:12.285Z,8.23
2018-07-05T16:02:52.322Z,8.67
2018-07-05T16:05:32.133Z,9.60
2018-07-05T16:08:11.962Z,8.87
2018-07-05T16:10:51.713Z,8.80
2018-07-05T16:13:32.554Z,8.80
2018-07-05T16:16:12.433Z,8.73
2018-07-05T16:18:52.232Z,9.57
2018-07-05T16:21:33.340Z,8.97
2018-07-05T16:24:13.300Z,8.70
2018-07-05T16:26:53.115Z,9.37
2018-07-05T16:29:32.823Z,9.50
2018-07-05T16:32:12.590Z,9.87
2018-07-05T16:34:52.326Z,9.03
2018-07-05T16:37:32.176Z,10.33
2018-07-05T16:40:11.968Z,9.30
2018-07-05T16:42:51.643Z,9.27
2018-07-05T16:45:31.725Z,9.23
2018-07-05T16:48:11.709Z,8.70
2018-07-05T16:50:51.365Z,7.80
2018-07-05T16:53:31.176Z,8.27
2018-07-05T16:56:11.075Z,7.13
2018-07-05T16:58:50.854Z,6.50
2018-07-05T17:01:30.562Z,7.30
2018-07-05T17:04:10.385Z,8.07
2018-07-05T17:06:50.320Z,7.50
2018-07-05T17:09:30.247Z,7.17
2018-07-05T17:12:09.984Z,7.53
2018-07-05T17:14:49.979Z,7.90
2018-07-05T17:17:29.989Z,7.67
2018-07-05T17:20:10.150Z,8.23
2018-07-05T17:22:50.103Z,8.67
2018-07-05T17:25:29.978Z,8.17
2018-07-05T17:28:09.757Z,8.17
2018-07-05T17:30:49.550Z,7.30
2018-07-05T17:33:29.417Z,6.67
2018-07-05T17:36:09.126Z,7.60
2018-07-05T17:38:49.105Z,8.33
2018-07-05T17:41:28.972Z,8.67
2018-07-05T17:44:08.879Z,7.90
2018-07-05T17:46:48.734Z,7.90
2018-07-05T17:49:28.685Z,6.83
2018-07-05T17:52:08.401Z,6.53
2018-07-05T17:54:48.266Z,6.77
2018-07-05T17:57:28.079Z,7.77
2018-07-05T18:00:07.888Z,7.73
2018-07-05T18:02:48.166Z,8.23
2018-07-05T18:05:27.939Z,8.40
2018-07-05T18:08:07.762Z,8.70
2018-07-05T18:10:47.573Z,10.87
2018-07-05T18:13:27.266Z,8.00
2018-07-05T18:16:07.053Z,7.90
2018-07-05T18:18:47.022Z,8.40
2018-07-05T18:21:26.902Z,7.83
2018-07-05T18:24:06.630Z,8.43
2018-07-05T18:26:46.473Z,8.77
2018-07-05T18:29:26.235Z,8.00
2018-07-05T18:32:06.002Z,8.20
2018-07-05T18:34:45.709Z,8.93
2018-07-05T18:37:25.458Z,8.43
2018-07-05T18:40:05.254Z,9.07
2018-07-05T18:42:45.239Z,10.00
2018-07-05T18:45:24.991Z,11.03
2018-07-05T18:48:05.125Z,12.03
2018-07-05T18:50:45.131Z,14.83
2018-07-05T18:53:24.933Z,16.07
2018-07-05T18:56:04.749Z,15.50
2018-07-05T18:58:44.592Z,14.60
2018-07-05T19:01:24.369Z,15.60
2018-07-05T19:04:04.168Z,15.07
2018-07-05T19:06:44.097Z,13.93
2018-07-05T19:09:24.154Z,15.00
2018-07-05T19:12:04.057Z,15.03
2018-07-05T19:14:43.972Z,13.03
2018-07-05T19:17:23.763Z,17.47
2018-07-05T19:20:03.563Z,12.83
2018-07-05T19:22:43.542Z,17.17
2018-07-05T19:25:23.375Z,18.67
2018-07-05T19:28:03.190Z,17.63
2018-07-05T19:30:43.003Z,17.67
2018-07-05T19:33:22.846Z,17.20
2018-07-05T19:36:02.894Z,17.73
2018-07-05T19:38:42.976Z,20.97
2018-07-05T19:41:22.741Z,20.73
2018-07-05T19:44:02.606Z,20.03
2018-07-05T19:46:42.610Z,16.17
2018-07-05T19:49:22.464Z,17.07
2018-07-05T19:52:02.181Z,16.27
2018-07-05T19:54:42.100Z,16.00
2018-07-05T19:57:22.113Z,17.33
2018-07-05T20:00:01.907Z,17.70
2018-07-05T20:02:41.672Z,18.57
2018-07-05T20:05:21.555Z,19.07
2018-07-05T20:08:01.424Z,17.43
2018-07-05T20:10:41.221Z,16.70
2018-07-05T20:13:21.042Z,17.00
2018-07-05T20:16:01.197Z,16.50
2018-07-05T20:18:41.081Z,16.47
2018-07-05T20:21:21.154Z,14.80
2018-07-05T20:24:00.983Z,16.30
2018-07-05T20:26:40.759Z,15.97
2018-07-05T20:29:20.554Z,15.93
2018-07-05T20:32:00.433Z,15.93
2018-07-05T20:34:40.237Z,15.40
2018-07-05T20:37:20.061Z,14.60
2018-07-05T20:40:01.619Z,16.30
2018-07-05T20:42:41.282Z,15.30
2018-07-05T20:45:21.097Z,15.13
2018-07-05T20:48:00.843Z,13.90
2018-07-05T20:50:40.655Z,14.83
2018-07-05T20:53:20.474Z,15.17
2018-07-05T20:56:00.762Z,15.40
2018-07-05T20:58:40.568Z,13.77
2018-07-05T21:01:21.285Z,17.23
2018-07-05T21:04:01.118Z,16.27
2018-07-05T21:06:40.967Z,13.97
2018-07-05T21:09:20.963Z,16.17
2018-07-05T21:12:00.886Z,20.97
2018-07-05T21:14:40.722Z,20.10
2018-07-05T21:17:20.793Z,21.70
2018-07-05T21:20:00.730Z,15.40
2018-07-05T21:22:40.478Z,15.23
2018-07-05T21:25:20.301Z,15.27
2018-07-05T21:28:00.168Z,14.80
2018-07-05T21:30:39.966Z,14.97
2018-07-05T21:33:19.876Z,13.60
2018-07-05T21:35:59.645Z,15.00
2018-07-05T21:38:39.403Z,16.57
2018-07-05T21:41:19.251Z,17.77
2018-07-05T21:43:59.187Z,21.60
2018-07-05T21:46:38.933Z,17.17
2018-07-05T21:49:18.689Z,17.00
2018-07-05T21:51:58.554Z,14.60
2018-07-05T21:54:38.250Z,14.93
2018-07-05T21:57:17.963Z,14.87
2018-07-05T21:59:57.654Z,15.73
2018-07-05T22:02:37.392Z,15.83
2018-07-05T22:05:17.086Z,15.53
2018-07-05T22:07:57.060Z,15.30
2018-07-05T22:10:36.851Z,16.03
2018-07-05T22:13:16.572Z,16.10
2018-07-05T22:15:56.667Z,16.20
2018-07-05T22:18:41.760Z,15.33
2018-07-05T22:21:21.706Z,16.53
2018-07-05T22:24:06.750Z,15.50
2018-07-05T22:26:47.814Z,16.13
2018-07-05T22:29:32.994Z,16.27
2018-07-05T22:32:12.866Z,15.73
2018-07-05T22:34:52.711Z,15.47
2018-07-05T22:37:32.426Z,16.47
2018-07-05T22:40:12.081Z,16.47
2018-07-05T22:42:51.857Z,16.70
2018-07-05T22:45:31.577Z,15.70
2018-07-05T22:48:11.509Z,15.93
2018-07-05T22:50:51.247Z,16.20
2018-07-05T22:53:31.043Z,16.30
2018-07-05T22:56:10.792Z,16.30
2018-07-05T22:58:50.639Z,16.03
2018-07-05T23:01:30.436Z,16.40
2018-07-05T23:04:10.115Z,16.20
2018-07-05T23:06:49.997Z,16.07
2018-07-05T23:09:29.807Z,16.73
2018-07-05T23:12:09.520Z,16.50
2018-07-05T23:14:49.238Z,16.27
2018-07-05T23:17:29.950Z,15.73
2018-07-05T23:20:09.764Z,17.53
2018-07-05T23:22:49.572Z,16.73
2018-07-05T23:25:29.338Z,17.40
2018-07-05T23:28:09.092Z,16.53
2018-07-05T23:30:49.106Z,17.27
2018-07-05T23:33:28.967Z,16.77
2018-07-05T23:36:08.756Z,17.50
2018-07-05T23:38:48.502Z,17.43
2018-07-05T23:41:28.365Z,16.37
2018-07-05T23:44:08.224Z,16.87
2018-07-05T23:46:48.089Z,17.17
2018-07-05T23:49:27.976Z,17.87
2018-07-05T23:52:07.780Z,17.40
2018-07-05T23:54:47.596Z,16.43
2018-07-05T23:57:27.250Z,16.17
